Dubois, Idaho
Current Conditions -  °F | °C
As of 6:19 PM on Tuesday 27 Jan 2015 (Local Time) from KRXE Reporting Station
Light Rain Light Rain  
Wind Chill: 53°   Ceiling: 4300
Heat Index: 53°   Visibility: 10mi
Dew Point: 35°   Wind: 5mph
Humidity: 50%   Direction: 230°SW
Pressure: 30.14"   Gusts: NA
Location:  44.18°N, 112.23°W
Report Text: KRXE 280119Z AUTO 23004KT 10SM -RA SCT026 OVC043 12/02 A3014 RMK AO2 P0001 T01170017
Loading
Personal Weather Stations






























Interactive Weather Map New forecast layout! Learn more

10-Day Weather Forecast

Advertisements
Track Severe Weather on mobile